Time,TemperatureF,DewpointF,PressureIn,WindDirection,WindDirectionDegrees,WindSpeedMPH,WindSpeedGustMPH,Humidity,HourlyPrecipIn,Conditions,Clouds,dailyrainin,SoftwareType,DateUTC
2013-01-24 00:04:00,-2.6,-14.2,30.59,NNE,21,5.2,9.6,57,0.00,,,0.00,WUHU21623XXSP,2013-01-24 06:04:00,
2013-01-24 00:09:00,-2.7,-14.4,30.59,NNE,25,3.7,9.2,57,0.00,,,0.00,WUHU21623XXSP,2013-01-24 06:09:00,
2013-01-24 00:14:00,-2.7,-14.4,30.59,North,0,8.7,8.7,57,0.00,,,0.00,WUHU21623XXSP,2013-01-24 06:14:00,
2013-01-24 00:19:00,-2.9,-14.5,30.59,NE,45,5.6,8.7,57,0.00,,,0.00,WUHU21623XXSP,2013-01-24 06:19:00,
2013-01-24 00:24:00,-2.9,-14.5,30.59,NNE,22,4.3,8.1,57,0.00,,,0.00,WUHU21623XXSP,2013-01-24 06:24:00,
2013-01-24 00:29:00,-2.9,-14.2,30.60,North,357,2.1,7.2,58,0.00,,,0.00,WUHU21623XXSP,2013-01-24 06:29:00,
2013-01-24 00:34:00,-3.1,-14.4,30.60,NNE,25,3.8,8.3,58,0.00,,,0.00,WUHU21623XXSP,2013-01-24 06:34:00,
2013-01-24 00:39:00,-3.1,-14.4,30.61,NNE,17,2.3,8.3,58,0.00,,,0.00,WUHU21623XXSP,2013-01-24 06:39:00,
2013-01-24 00:44:00,-3.1,-14.4,30.61,North,2,2.4,6.3,58,0.00,,,0.00,WUHU21623XXSP,2013-01-24 06:44:00,
2013-01-24 00:49:00,-3.1,-14.4,30.61,NNE,22,3.6,6.7,58,0.00,,,0.00,WUHU21623XXSP,2013-01-24 06:49:00,
2013-01-24 00:54:00,-3.1,-14.4,30.60,NE,45,3.1,6.7,58,0.00,,,0.00,WUHU21623XXSP,2013-01-24 06:54:00,
2013-01-24 00:59:00,-3.3,-14.5,30.60,NNW,337,2.2,6.3,58,0.00,,,0.00,WUHU21623XXSP,2013-01-24 06:59:00,
2013-01-24 01:04:00,-3.3,-14.5,30.60,NNE,22,2.2,6.3,58,0.00,,,0.00,WUHU21623XXSP,2013-01-24 07:04:00,
2013-01-24 01:09:00,-3.3,-14.5,30.60,NNE,21,3.2,7.2,58,0.00,,,0.00,WUHU21623XXSP,2013-01-24 07:09:00,
2013-01-24 01:14:00,-3.3,-14.5,30.61,NNE,22,1.8,7.2,58,0.00,,,0.00,WUHU21623XXSP,2013-01-24 07:14:00,
2013-01-24 01:19:00,-3.3,-14.5,30.61,NNE,21,3.4,6.7,58,0.00,,,0.00,WUHU21623XXSP,2013-01-24 07:19:00,
2013-01-24 01:24:00,-3.5,-14.7,30.61,North,0,2.9,6.7,58,0.00,,,0.00,WUHU21623XXSP,2013-01-24 07:24:00,
2013-01-24 01:29:00,-3.5,-14.7,30.60,NNE,27,2.2,5.8,58,0.00,,,0.00,WUHU21623XXSP,2013-01-24 07:29:00,
2013-01-24 01:34:00,-3.5,-14.7,30.60,NE,45,3.4,5.8,58,0.00,,,0.00,WUHU21623XXSP,2013-01-24 07:34:00,
2013-01-24 01:39:00,-3.6,-14.8,30.61,NE,53,2.4,4.7,58,0.00,,,0.00,WUHU21623XXSP,2013-01-24 07:39:00,
2013-01-24 01:44:00,-3.6,-14.5,30.61,NNE,31,2.2,6.7,59,0.00,,,0.00,WUHU21623XXSP,2013-01-24 07:44:00,
2013-01-24 01:49:00,-3.6,-14.5,30.60,North,359,1.4,6.7,59,0.00,,,0.00,WUHU21623XXSP,2013-01-24 07:49:00,
2013-01-24 01:54:00,-3.6,-14.5,30.61,NE,56,2.0,4.0,59,0.00,,,0.00,WUHU21623XXSP,2013-01-24 07:54:00,
2013-01-24 01:59:00,-3.6,-14.5,30.61,NE,45,3.6,5.8,59,0.00,,,0.00,WUHU21623XXSP,2013-01-24 07:59:00,
2013-01-24 02:04:00,-3.8,-14.6,30.61,NE,45,3.1,6.7,59,0.00,,,0.00,WUHU21623XXSP,2013-01-24 08:04:00,
2013-01-24 02:09:00,-3.8,-14.6,30.61,North,0,3.8,6.7,59,0.00,,,0.00,WUHU21623XXSP,2013-01-24 08:09:00,
2013-01-24 02:14:00,-3.8,-14.6,30.61,NE,35,2.8,6.0,59,0.00,,,0.00,WUHU21623XXSP,2013-01-24 08:14:00,
2013-01-24 02:19:00,-3.8,-14.6,30.61,North,6,4.9,7.4,59,0.00,,,0.00,WUHU21623XXSP,2013-01-24 08:19:00,
2013-01-24 02:24:00,-3.8,-14.6,30.61,North,9,3.3,7.4,59,0.00,,,0.00,WUHU21623XXSP,2013-01-24 08:24:00,
2013-01-24 02:29:00,-3.8,-14.6,30.61,NE,45,2.0,6.9,59,0.00,,,0.00,WUHU21623XXSP,2013-01-24 08:29:00,
2013-01-24 02:34:00,-3.8,-14.6,30.62,NNE,13,2.3,6.3,59,0.00,,,0.00,WUHU21623XXSP,2013-01-24 08:34:00,
2013-01-24 02:40:00,-3.8,-14.6,30.62,NE,43,2.4,3.4,59,0.00,,,0.00,WUHU21623XXSP,2013-01-24 08:40:00,
2013-01-24 02:45:00,-3.8,-14.6,30.62,NNE,20,2.3,3.6,59,0.00,,,0.00,WUHU21623XXSP,2013-01-24 08:45:00,
2013-01-24 02:50:00,-3.8,-14.6,30.62,NE,43,2.2,3.6,59,0.00,,,0.00,WUHU21623XXSP,2013-01-24 08:50:00,
2013-01-24 02:55:00,-3.8,-14.6,30.63,North,0,6.0,6.0,59,0.00,,,0.00,WUHU21623XXSP,2013-01-24 08:55:00,
2013-01-24 03:00:00,-3.8,-14.6,30.63,NE,52,1.5,6.0,59,0.00,,,0.00,WUHU21623XXSP,2013-01-24 09:00:00,
2013-01-24 03:05:00,-3.8,-14.6,30.63,East,89,1.1,4.9,59,0.00,,,0.00,WUHU21623XXSP,2013-01-24 09:05:00,
2013-01-24 03:10:00,-3.8,-14.6,30.62,ENE,67,0.0,2.0,59,0.00,,,0.00,WUHU21623XXSP,2013-01-24 09:10:00,
2013-01-24 03:15:00,-3.8,-14.6,30.62,ENE,67,1.7,3.8,59,0.00,,,0.00,WUHU21623XXSP,2013-01-24 09:15:00,
2013-01-24 03:20:00,-3.8,-14.6,30.62,NNE,22,4.3,4.5,59,0.00,,,0.00,WUHU21623XXSP,2013-01-24 09:20:00,
2013-01-24 03:25:00,-3.8,-14.6,30.63,NNE,31,2.6,4.5,59,0.00,,,0.00,WUHU21623XXSP,2013-01-24 09:25:00,
2013-01-24 03:30:00,-3.8,-14.6,30.64,NE,45,1.8,3.8,59,0.00,,,0.00,WUHU21623XXSP,2013-01-24 09:30:00,
2013-01-24 03:35:00,-3.8,-14.6,30.64,NNE,15,2.9,6.0,59,0.00,,,0.00,WUHU21623XXSP,2013-01-24 09:35:00,
2013-01-24 03:40:00,-3.8,-14.6,30.63,North,2,3.8,6.3,59,0.00,,,0.00,WUHU21623XXSP,2013-01-24 09:40:00,
2013-01-24 03:46:00,-3.8,-14.6,30.64,NNE,22,0.0,6.3,59,0.00,,,0.00,WUHU21623XXSP,2013-01-24 09:46:00,
2013-01-24 03:51:00,-3.8,-14.6,30.63,NNE,22,1.5,2.5,59,0.00,,,0.00,WUHU21623XXSP,2013-01-24 09:51:00,
2013-01-24 03:55:00,-3.8,-14.6,30.64,NE,45,0.0,2.2,59,0.00,,,0.00,WUHU21623XXSP,2013-01-24 09:55:00,
2013-01-24 04:01:00,-3.8,-14.6,30.64,North,357,2.3,2.9,59,0.00,,,0.00,WUHU21623XXSP,2013-01-24 10:01:00,
2013-01-24 04:06:00,-4.2,-15.0,30.64,NNE,22,3.1,4.0,59,0.00,,,0.00,WUHU21623XXSP,2013-01-24 10:06:00,
2013-01-24 04:11:00,-4.0,-14.8,30.63,NNE,32,1.9,4.0,59,0.00,,,0.00,WUHU21623XXSP,2013-01-24 10:11:00,
2013-01-24 04:16:00,-4.2,-15.0,30.63,NE,45,1.9,3.4,59,0.00,,,0.00,WUHU21623XXSP,2013-01-24 10:16:00,
2013-01-24 04:21:00,-4.2,-14.6,30.62,NE,52,2.2,3.6,60,0.00,,,0.00,WUHU21623XXSP,2013-01-24 10:21:00,
2013-01-24 04:26:00,-4.2,-14.6,30.62,NNE,26,2.0,3.8,60,0.00,,,0.00,WUHU21623XXSP,2013-01-24 10:26:00,
2013-01-24 04:31:00,-4.2,-14.6,30.62,NNE,29,1.8,3.8,60,0.00,,,0.00,WUHU21623XXSP,2013-01-24 10:31:00,
2013-01-24 04:36:00,-4.2,-14.6,30.62,NE,45,1.3,3.4,60,0.00,,,0.00,WUHU21623XXSP,2013-01-24 10:36:00,
2013-01-24 04:41:00,-4.2,-14.6,30.62,NNW,346,1.6,4.0,60,0.00,,,0.00,WUHU21623XXSP,2013-01-24 10:41:00,
2013-01-24 04:46:00,-4.2,-14.6,30.62,ENE,67,4.3,4.3,60,0.00,,,0.00,WUHU21623XXSP,2013-01-24 10:46:00,
2013-01-24 04:51:00,-4.2,-14.6,30.61,NNE,25,2.1,4.3,60,0.00,,,0.00,WUHU21623XXSP,2013-01-24 10:51:00,
2013-01-24 04:56:00,-4.2,-14.6,30.61,NE,45,1.7,3.4,60,0.00,,,0.00,WUHU21623XXSP,2013-01-24 10:56:00,
2013-01-24 05:01:00,-4.2,-14.6,30.61,NE,45,3.1,3.1,60,0.00,,,0.00,WUHU21623XXSP,2013-01-24 11:01:00,
2013-01-24 05:06:00,-4.2,-14.6,30.61,NNE,22,1.7,3.1,60,0.00,,,0.00,WUHU21623XXSP,2013-01-24 11:06:00,
2013-01-24 05:11:00,-4.2,-14.6,30.61,NNE,16,1.2,3.1,60,0.00,,,0.00,WUHU21623XXSP,2013-01-24 11:11:00,
2013-01-24 05:16:00,-4.0,-14.4,30.61,NE,50,1.9,3.6,60,0.00,,,0.00,WUHU21623XXSP,2013-01-24 11:16:00,
2013-01-24 05:21:00,-4.2,-14.6,30.60,NE,40,2.7,4.0,60,0.00,,,0.00,WUHU21623XXSP,2013-01-24 11:21:00,
2013-01-24 05:26:00,-4.2,-14.6,30.60,NE,45,2.2,4.0,60,0.00,,,0.00,WUHU21623XXSP,2013-01-24 11:26:00,
2013-01-24 05:31:00,-4.2,-14.6,30.61,NE,45,3.4,4.0,60,0.00,,,0.00,WUHU21623XXSP,2013-01-24 11:31:00,
2013-01-24 05:36:00,-4.2,-14.4,30.61,NE,42,2.6,5.1,60,0.00,,,0.00,WUHU21623XXSP,2013-01-24 11:36:00,
2013-01-24 05:41:00,-4.2,-14.6,30.60,ENE,72,2.9,5.1,60,0.00,,,0.00,WUHU21623XXSP,2013-01-24 11:41:00,
2013-01-24 05:46:00,-4.2,-14.6,30.60,NE,35,2.1,4.3,60,0.00,,,0.00,WUHU21623XXSP,2013-01-24 11:46:00,
2013-01-24 05:51:00,-3.8,-14.3,30.59,NNE,30,1.6,4.3,60,0.00,,,0.00,WUHU21623XXSP,2013-01-24 11:51:00,
2013-01-24 05:56:00,-3.8,-14.3,30.59,ENE,77,1.5,5.1,60,0.00,,,0.00,WUHU21623XXSP,2013-01-24 11:56:00,
2013-01-24 06:01:00,-3.8,-14.0,30.60,NE,45,2.9,5.1,61,0.00,,,0.00,WUHU21623XXSP,2013-01-24 12:01:00,
2013-01-24 06:06:00,-3.8,-14.0,30.59,ENE,57,2.9,4.5,61,0.00,,,0.00,WUHU21623XXSP,2013-01-24 12:06:00,
2013-01-24 06:11:00,-3.8,-14.0,30.60,NNE,16,2.1,4.5,61,0.00,,,0.00,WUHU21623XXSP,2013-01-24 12:11:00,
2013-01-24 06:16:00,-3.8,-14.0,30.60,ESE,109,1.1,3.6,61,0.00,,,0.00,WUHU21623XXSP,2013-01-24 12:16:00,
2013-01-24 06:21:00,-3.8,-14.0,30.60,NE,48,1.8,3.6,61,0.00,,,0.00,WUHU21623XXSP,2013-01-24 12:21:00,
2013-01-24 06:26:00,-3.8,-14.0,30.61,SSE,157,0.0,2.2,61,0.00,,,0.00,WUHU21623XXSP,2013-01-24 12:26:00,
2013-01-24 06:31:00,-3.8,-14.0,30.61,ENE,67,0.0,0.0,61,0.00,,,0.00,WUHU21623XXSP,2013-01-24 12:31:00,
2013-01-24 06:36:00,-4.2,-14.3,30.62,SE,139,1.0,1.3,61,0.00,,,0.00,WUHU21623XXSP,2013-01-24 12:36:00,
2013-01-24 06:41:00,-4.2,-14.3,30.62,ESE,112,0.0,1.3,61,0.00,,,0.00,WUHU21623XXSP,2013-01-24 12:41:00,
2013-01-24 06:46:00,-4.2,-14.3,30.62,South,180,0.0,1.1,61,0.00,,,0.00,WUHU21623XXSP,2013-01-24 12:46:00,
2013-01-24 06:51:00,-4.2,-14.3,30.62,SSW,193,1.0,2.2,61,0.00,,,0.00,WUHU21623XXSP,2013-01-24 12:51:00,
2013-01-24 06:56:00,-4.2,-14.3,30.62,South,180,0.0,2.5,61,0.00,,,0.00,WUHU21623XXSP,2013-01-24 12:56:00,
2013-01-24 07:01:00,-4.2,-14.3,30.62,SSE,157,0.0,2.5,61,0.00,,,0.00,WUHU21623XXSP,2013-01-24 13:01:00,
2013-01-24 07:06:00,-3.8,-14.0,30.61,SSW,202,0.0,1.3,61,0.00,,,0.00,WUHU21623XXSP,2013-01-24 13:06:00,
2013-01-24 07:11:00,-3.8,-14.0,30.61,ENE,67,0.0,1.1,61,0.00,,,0.00,WUHU21623XXSP,2013-01-24 13:11:00,
2013-01-24 07:16:00,-3.8,-14.0,30.61,NE,45,0.0,1.1,61,0.00,,,0.00,WUHU21623XXSP,2013-01-24 13:16:00,
2013-01-24 07:21:00,-3.8,-14.0,30.61,West,270,0.0,0.0,61,0.00,,,0.00,WUHU21623XXSP,2013-01-24 13:21:00,
2013-01-24 07:26:00,-3.8,-14.0,30.60,NE,45,0.0,0.0,61,0.00,,,0.00,WUHU21623XXSP,2013-01-24 13:26:00,
2013-01-24 07:31:00,-3.6,-13.8,30.60,SSE,157,0.0,0.0,61,0.00,,,0.00,WUHU21623XXSP,2013-01-24 13:31:00,
2013-01-24 07:36:00,-3.6,-13.8,30.60,SSE,157,0.0,1.1,61,0.00,,,0.00,WUHU21623XXSP,2013-01-24 13:36:00,
2013-01-24 07:41:00,-3.6,-13.8,30.60,NE,45,0.0,1.1,61,0.00,,,0.00,WUHU21623XXSP,2013-01-24 13:41:00,
2013-01-24 07:46:00,-3.5,-13.6,30.60,ENE,67,0.0,0.0,61,0.00,,,0.00,WUHU21623XXSP,2013-01-24 13:46:00,
2013-01-24 07:51:00,-3.5,-13.6,30.60,NNW,337,0.0,0.0,61,0.00,,,0.00,WUHU21623XXSP,2013-01-24 13:51:00,
2013-01-24 07:56:00,-3.3,-13.5,30.61,SSE,157,0.0,0.9,61,0.00,,,0.00,WUHU21623XXSP,2013-01-24 13:56:00,
2013-01-24 08:02:00,-3.3,-13.5,30.60,SE,142,1.9,2.5,61,0.00,,,0.00,WUHU21623XXSP,2013-01-24 14:02:00,
2013-01-24 08:07:00,-3.3,-13.5,30.60,NE,45,1.4,2.5,61,0.00,,,0.00,WUHU21623XXSP,2013-01-24 14:07:00,
2013-01-24 08:12:00,-3.3,-13.5,30.60,SE,138,1.2,2.2,61,0.00,,,0.00,WUHU21623XXSP,2013-01-24 14:12:00,
2013-01-24 08:17:00,-3.5,-13.6,30.60,ENE,67,1.6,2.2,61,0.00,,,0.00,WUHU21623XXSP,2013-01-24 14:17:00,
2013-01-24 08:22:00,-3.3,-13.5,30.60,East,90,1.9,2.2,61,0.00,,,0.00,WUHU21623XXSP,2013-01-24 14:22:00,
2013-01-24 08:27:00,-3.1,-13.3,30.60,ENE,68,3.1,5.1,61,0.00,,,0.00,WUHU21623XXSP,2013-01-24 14:27:00,
2013-01-24 08:32:00,-2.9,-12.8,30.60,ENE,66,1.1,5.1,62,0.00,,,0.00,WUHU21623XXSP,2013-01-24 14:32:00,
2013-01-24 08:37:00,-2.7,-12.7,30.60,East,86,2.1,3.6,62,0.00,,,0.00,WUHU21623XXSP,2013-01-24 14:37:00,
2013-01-24 08:42:00,-2.6,-12.5,30.60,ENE,67,1.8,3.6,62,0.00,,,0.00,WUHU21623XXSP,2013-01-24 14:42:00,
2013-01-24 08:47:00,-2.4,-12.4,30.60,NE,45,1.6,2.7,62,0.00,,,0.00,WUHU21623XXSP,2013-01-24 14:47:00,
2013-01-24 08:52:00,-2.4,-12.4,30.59,East,87,1.5,2.9,62,0.00,,,0.00,WUHU21623XXSP,2013-01-24 14:52:00,
2013-01-24 08:57:00,-2.4,-12.4,30.59,NE,56,1.6,2.9,62,0.00,,,0.00,WUHU21623XXSP,2013-01-24 14:57:00,
2013-01-24 09:02:00,-2.4,-12.4,30.59,SSE,157,4.5,4.5,62,0.00,,,0.00,WUHU21623XXSP,2013-01-24 15:02:00,
2013-01-24 09:07:00,-2.4,-12.7,30.58,SE,134,2.3,4.5,61,0.00,,,0.00,WUHU21623XXSP,2013-01-24 15:07:00,
2013-01-24 09:12:00,-2.6,-12.8,30.58,SE,135,3.1,3.8,61,0.00,,,0.00,WUHU21623XXSP,2013-01-24 15:12:00,
2013-01-24 09:17:00,-2.6,-12.5,30.58,NE,48,2.0,3.8,62,0.00,,,0.00,WUHU21623XXSP,2013-01-24 15:17:00,
2013-01-24 09:22:00,-2.4,-12.4,30.59,SSW,202,1.6,3.4,62,0.00,,,0.00,WUHU21623XXSP,2013-01-24 15:22:00,
2013-01-24 09:27:00,-2.4,-12.4,30.58,ESE,121,1.1,2.5,62,0.00,,,0.00,WUHU21623XXSP,2013-01-24 15:27:00,
2013-01-24 09:32:00,-2.4,-12.4,30.59,SE,144,2.2,4.0,62,0.00,,,0.00,WUHU21623XXSP,2013-01-24 15:32:00,
2013-01-24 09:37:00,-2.4,-12.4,30.59,SE,140,1.4,4.0,62,0.00,,,0.00,WUHU21623XXSP,2013-01-24 15:37:00,
2013-01-24 09:42:00,-2.2,-12.2,30.59,SSE,155,1.5,5.4,62,0.00,,,0.00,WUHU21623XXSP,2013-01-24 15:42:00,
2013-01-24 09:47:00,-2.0,-12.0,30.60,SE,139,1.9,5.4,62,0.00,,,0.00,WUHU21623XXSP,2013-01-24 15:47:00,
2013-01-24 09:52:00,-2.0,-11.7,30.60,SSE,154,1.5,3.1,63,0.00,,,0.00,WUHU21623XXSP,2013-01-24 15:52:00,
2013-01-24 09:57:00,-1.7,-11.3,30.61,SSE,166,2.3,4.0,63,0.00,,,0.00,WUHU21623XXSP,2013-01-24 15:57:00,
2013-01-24 10:02:00,-1.7,-11.3,30.60,SSE,160,2.2,4.0,63,0.00,,,0.00,WUHU21623XXSP,2013-01-24 16:02:00,
2013-01-24 10:07:00,-1.5,-11.2,30.60,SSW,202,3.1,5.1,63,0.00,,,0.00,WUHU21623XXSP,2013-01-24 16:07:00,
2013-01-24 10:12:00,-1.3,-11.0,30.60,SE,137,1.7,6.3,63,0.00,,,0.00,WUHU21623XXSP,2013-01-24 16:12:00,
2013-01-24 10:17:00,-1.1,-10.8,30.60,SE,135,3.8,6.3,63,0.00,,,0.00,WUHU21623XXSP,2013-01-24 16:17:00,
2013-01-24 10:22:00,-1.1,-10.8,30.60,South,184,3.3,5.8,63,0.00,,,0.00,WUHU21623XXSP,2013-01-24 16:22:00,
2013-01-24 10:27:00,-0.8,-10.5,30.60,South,180,5.6,5.8,63,0.00,,,0.00,WUHU21623XXSP,2013-01-24 16:27:00,
2013-01-24 10:32:00,-0.8,-10.5,30.60,SE,143,3.4,5.8,63,0.00,,,0.00,WUHU21623XXSP,2013-01-24 16:32:00,
2013-01-24 10:37:00,-0.6,-10.3,30.60,SSE,157,2.9,5.1,63,0.00,,,0.00,WUHU21623XXSP,2013-01-24 16:37:00,
2013-01-24 10:42:00,-0.6,-10.3,30.60,SE,135,2.7,5.1,63,0.00,,,0.00,WUHU21623XXSP,2013-01-24 16:42:00,
2013-01-24 10:47:00,-0.2,-9.9,30.60,SE,135,4.0,4.7,63,0.00,,,0.00,WUHU21623XXSP,2013-01-24 16:47:00,
2013-01-24 10:52:00,0.0,-9.8,30.60,South,180,3.1,4.5,63,0.00,,,0.00,WUHU21623XXSP,2013-01-24 16:52:00,
2013-01-24 10:57:00,0.3,-9.4,30.59,SE,135,3.8,4.5,63,0.00,,,0.00,WUHU21623XXSP,2013-01-24 16:57:00,
2013-01-24 11:02:00,0.3,-9.4,30.59,SE,135,2.7,4.5,63,0.00,,,0.00,WUHU21623XXSP,2013-01-24 17:02:00,
2013-01-24 11:07:00,0.5,-9.3,30.59,SSE,167,2.3,4.5,63,0.00,,,0.00,WUHU21623XXSP,2013-01-24 17:07:00,
2013-01-24 11:12:00,0.7,-9.1,30.59,SE,135,3.8,4.7,63,0.00,,,0.00,WUHU21623XXSP,2013-01-24 17:12:00,
2013-01-24 11:17:00,1.0,-8.8,30.58,SSE,155,2.5,4.7,63,0.00,,,0.00,WUHU21623XXSP,2013-01-24 17:17:00,
2013-01-24 11:22:00,1.2,-8.6,30.58,SE,135,3.6,4.5,63,0.00,,,0.00,WUHU21623XXSP,2013-01-24 17:22:00,
2013-01-24 11:27:00,1.2,-8.6,30.58,SSE,152,1.8,5.1,63,0.00,,,0.00,WUHU21623XXSP,2013-01-24 17:27:00,
2013-01-24 11:32:00,1.4,-8.4,30.58,SE,133,2.1,5.1,63,0.00,,,0.00,WUHU21623XXSP,2013-01-24 17:32:00,
2013-01-24 11:37:00,1.8,-8.1,30.57,SSE,148,1.9,4.3,63,0.00,,,0.00,WUHU21623XXSP,2013-01-24 17:37:00,
2013-01-24 11:43:00,1.9,-7.9,30.57,SE,141,3.3,4.7,63,0.00,,,0.00,WUHU21623XXSP,2013-01-24 17:43:00,
2013-01-24 11:48:00,1.9,-7.9,30.56,SSE,157,4.5,4.7,63,0.00,,,0.00,WUHU21623XXSP,2013-01-24 17:48:00,
2013-01-24 11:53:00,2.1,-7.7,30.56,ESE,122,2.0,7.4,63,0.00,,,0.00,WUHU21623XXSP,2013-01-24 17:53:00,
2013-01-24 11:58:00,2.3,-7.5,30.55,SE,138,3.4,7.4,63,0.00,,,0.00,WUHU21623XXSP,2013-01-24 17:58:00,
2013-01-24 12:03:00,2.5,-7.3,30.55,SE,135,4.3,5.1,63,0.00,,,0.00,WUHU21623XXSP,2013-01-24 18:03:00,
2013-01-24 12:08:00,2.8,-7.3,30.56,SSE,147,2.3,5.1,62,0.00,,,0.00,WUHU21623XXSP,2013-01-24 18:08:00,
2013-01-24 12:13:00,2.8,-7.3,30.55,SE,127,1.4,4.9,62,0.00,,,0.00,WUHU21623XXSP,2013-01-24 18:13:00,
2013-01-24 12:18:00,3.0,-7.1,30.55,SSE,157,4.0,4.9,62,0.00,,,0.00,WUHU21623XXSP,2013-01-24 18:18:00,
2013-01-24 12:23:00,3.4,-6.8,30.54,SE,135,3.6,5.1,62,0.00,,,0.00,WUHU21623XXSP,2013-01-24 18:23:00,
2013-01-24 12:28:00,3.4,-6.8,30.53,SSE,158,2.8,5.4,62,0.00,,,0.00,WUHU21623XXSP,2013-01-24 18:28:00,
2013-01-24 12:33:00,3.6,-6.3,30.53,SSE,159,4.1,7.2,63,0.00,,,0.00,WUHU21623XXSP,2013-01-24 18:33:00,
2013-01-24 12:38:00,3.9,-6.3,30.53,SSE,153,4.5,7.8,62,0.00,,,0.00,WUHU21623XXSP,2013-01-24 18:38:00,
2013-01-24 12:43:00,3.9,-6.3,30.52,SSE,153,3.3,7.8,62,0.00,,,0.00,WUHU21623XXSP,2013-01-24 18:43:00,
2013-01-24 12:48:00,4.1,-6.1,30.51,SSE,161,4.1,6.5,62,0.00,,,0.00,WUHU21623XXSP,2013-01-24 18:48:00,
2013-01-24 12:53:00,4.1,-6.1,30.51,ESE,112,6.9,8.5,62,0.00,,,0.00,WUHU21623XXSP,2013-01-24 18:53:00,
2013-01-24 12:58:00,4.3,-6.0,30.50,SSE,149,4.0,8.5,62,0.00,,,0.00,WUHU21623XXSP,2013-01-24 18:58:00,
2013-01-24 13:03:00,4.5,-5.8,30.49,SE,135,5.1,7.6,62,0.00,,,0.00,WUHU21623XXSP,2013-01-24 19:03:00,
2013-01-24 13:08:00,4.5,-5.8,30.50,SSE,157,4.5,6.5,62,0.00,,,0.00,WUHU21623XXSP,2013-01-24 19:08:00,
2013-01-24 13:13:00,4.6,-5.7,30.50,SE,139,4.0,6.7,62,0.00,,,0.00,WUHU21623XXSP,2013-01-24 19:13:00,
2013-01-24 13:18:00,4.8,-5.5,30.50,SE,140,1.7,6.7,62,0.00,,,0.00,WUHU21623XXSP,2013-01-24 19:18:00,
2013-01-24 13:23:00,4.8,-5.8,30.50,SSE,157,5.1,6.0,61,0.00,,,0.00,WUHU21623XXSP,2013-01-24 19:23:00,
2013-01-24 13:28:00,4.8,-5.8,30.49,SSE,157,4.3,6.0,61,0.00,,,0.00,WUHU21623XXSP,2013-01-24 19:28:00,
2013-01-24 13:33:00,4.8,-5.8,30.49,ESE,112,4.5,6.0,61,0.00,,,0.00,WUHU21623XXSP,2013-01-24 19:33:00,
2013-01-24 13:38:00,5.0,-5.7,30.49,SE,135,3.4,5.4,61,0.00,,,0.00,WUHU21623XXSP,2013-01-24 19:38:00,
2013-01-24 13:43:00,5.2,-5.5,30.49,SSE,157,5.8,6.3,61,0.00,,,0.00,WUHU21623XXSP,2013-01-24 19:43:00,
2013-01-24 13:48:00,5.2,-5.5,30.49,SE,135,3.4,6.3,61,0.00,,,0.00,WUHU21623XXSP,2013-01-24 19:48:00,
2013-01-24 13:53:00,5.4,-5.3,30.48,SE,146,3.6,6.0,61,0.00,,,0.00,WUHU21623XXSP,2013-01-24 19:53:00,
2013-01-24 13:59:00,5.2,-5.5,30.48,SE,144,4.2,6.7,61,0.00,,,0.00,WUHU21623XXSP,2013-01-24 19:59:00,
2013-01-24 14:04:00,5.4,-5.3,30.48,SSE,157,2.5,6.7,61,0.00,,,0.00,WUHU21623XXSP,2013-01-24 20:04:00,
2013-01-24 14:09:00,5.5,-5.1,30.48,South,182,4.3,6.9,61,0.00,,,0.00,WUHU21623XXSP,2013-01-24 20:09:00,
2013-01-24 14:14:00,5.5,-5.1,30.47,SSE,148,3.5,6.9,61,0.00,,,0.00,WUHU21623XXSP,2013-01-24 20:14:00,
2013-01-24 14:19:00,5.7,-4.9,30.46,SSE,147,2.8,6.0,61,0.00,,,0.00,WUHU21623XXSP,2013-01-24 20:19:00,
2013-01-24 14:24:00,5.7,-4.6,30.45,SSE,154,3.3,6.5,62,0.00,,,0.00,WUHU21623XXSP,2013-01-24 20:24:00,
2013-01-24 14:29:00,5.9,-4.8,30.44,SSE,150,4.4,7.8,61,0.00,,,0.00,WUHU21623XXSP,2013-01-24 20:29:00,
2013-01-24 14:34:00,5.9,-4.8,30.44,SSE,157,5.4,7.8,61,0.00,,,0.00,WUHU21623XXSP,2013-01-24 20:34:00,
2013-01-24 14:39:00,6.1,-4.6,30.43,SSE,147,3.3,6.5,61,0.00,,,0.00,WUHU21623XXSP,2013-01-24 20:39:00,
2013-01-24 14:44:00,6.1,-4.6,30.42,SE,135,5.4,7.4,61,0.00,,,0.00,WUHU21623XXSP,2013-01-24 20:44:00,
2013-01-24 14:49:00,6.4,-4.2,30.42,SE,135,3.3,7.4,61,0.00,,,0.00,WUHU21623XXSP,2013-01-24 20:49:00,
2013-01-24 14:54:00,6.4,-4.2,30.41,SSE,149,3.9,6.9,61,0.00,,,0.00,WUHU21623XXSP,2013-01-24 20:54:00,
2013-01-24 14:59:00,6.4,-4.2,30.41,SSE,149,3.0,6.9,61,0.00,,,0.00,WUHU21623XXSP,2013-01-24 20:59:00,
2013-01-24 15:04:00,6.6,-4.0,30.41,SSE,158,3.9,6.7,61,0.00,,,0.00,WUHU21623XXSP,2013-01-24 21:04:00,
2013-01-24 15:09:00,6.6,-4.0,30.41,SSE,157,2.9,6.7,61,0.00,,,0.00,WUHU21623XXSP,2013-01-24 21:09:00,
2013-01-24 15:14:00,6.6,-4.0,30.41,South,180,5.1,6.9,61,0.00,,,0.00,WUHU21623XXSP,2013-01-24 21:14:00,
2013-01-24 15:19:00,7.0,-3.7,30.41,SSE,161,4.2,7.8,61,0.00,,,0.00,WUHU21623XXSP,2013-01-24 21:19:00,
2013-01-24 15:24:00,7.0,-3.7,30.40,SW,225,3.1,7.8,61,0.00,,,0.00,WUHU21623XXSP,2013-01-24 21:24:00,
2013-01-24 15:29:00,7.2,-3.5,30.40,SSE,161,5.9,11.6,61,0.00,,,0.00,WUHU21623XXSP,2013-01-24 21:29:00,
2013-01-24 15:34:00,7.2,-3.5,30.40,SSE,158,3.9,11.6,61,0.00,,,0.00,WUHU21623XXSP,2013-01-24 21:34:00,
2013-01-24 15:39:00,7.3,-3.4,30.40,SE,135,4.7,10.1,61,0.00,,,0.00,WUHU21623XXSP,2013-01-24 21:39:00,
2013-01-24 15:44:00,7.5,-3.2,30.40,SSE,147,4.0,5.8,61,0.00,,,0.00,WUHU21623XXSP,2013-01-24 21:44:00,
2013-01-24 15:49:00,7.5,-3.2,30.39,SSE,153,3.4,6.7,61,0.00,,,0.00,WUHU21623XXSP,2013-01-24 21:49:00,
2013-01-24 15:54:00,7.5,-3.2,30.39,SSE,151,3.0,6.7,61,0.00,,,0.00,WUHU21623XXSP,2013-01-24 21:54:00,
2013-01-24 15:59:00,7.5,-3.2,30.38,SE,135,3.1,5.1,61,0.00,,,0.00,WUHU21623XXSP,2013-01-24 21:59:00,
2013-01-24 16:04:00,7.5,-3.2,30.38,SE,130,3.4,6.0,61,0.00,,,0.00,WUHU21623XXSP,2013-01-24 22:04:00,
2013-01-24 16:09:00,7.7,-3.0,30.37,SE,142,3.0,6.0,61,0.00,,,0.00,WUHU21623XXSP,2013-01-24 22:09:00,
2013-01-24 16:14:00,7.7,-3.0,30.37,SSE,157,2.7,5.1,61,0.00,,,0.00,WUHU21623XXSP,2013-01-24 22:14:00,
2013-01-24 16:19:00,7.7,-3.0,30.37,SE,135,4.9,5.8,61,0.00,,,0.00,WUHU21623XXSP,2013-01-24 22:19:00,
2013-01-24 16:24:00,7.7,-3.0,30.37,SE,141,4.0,6.3,61,0.00,,,0.00,WUHU21623XXSP,2013-01-24 22:24:00,
2013-01-24 16:29:00,7.7,-3.0,30.37,SSE,148,4.0,6.3,61,0.00,,,0.00,WUHU21623XXSP,2013-01-24 22:29:00,
2013-01-24 16:34:00,7.7,-3.0,30.37,SE,129,2.4,5.6,61,0.00,,,0.00,WUHU21623XXSP,2013-01-24 22:34:00,
2013-01-24 16:39:00,7.9,-2.5,30.37,SSE,149,1.8,4.5,62,0.00,,,0.00,WUHU21623XXSP,2013-01-24 22:39:00,
2013-01-24 16:44:00,7.9,-2.5,30.35,SE,145,3.3,4.9,62,0.00,,,0.00,WUHU21623XXSP,2013-01-24 22:44:00,
2013-01-24 16:49:00,7.9,-2.5,30.34,SSE,157,2.0,4.9,62,0.00,,,0.00,WUHU21623XXSP,2013-01-24 22:49:00,
2013-01-24 16:54:00,8.1,-2.4,30.34,SE,135,2.5,4.3,62,0.00,,,0.00,WUHU21623XXSP,2013-01-24 22:54:00,
2013-01-24 16:59:00,8.1,-2.4,30.34,SE,137,3.9,5.4,62,0.00,,,0.00,WUHU21623XXSP,2013-01-24 22:59:00,
2013-01-24 17:04:00,8.1,-2.4,30.33,SE,133,3.8,6.7,62,0.00,,,0.00,WUHU21623XXSP,2013-01-24 23:04:00,
2013-01-24 17:09:00,8.2,-2.2,30.32,SE,126,4.3,7.6,62,0.00,,,0.00,WUHU21623XXSP,2013-01-24 23:09:00,
2013-01-24 17:14:00,8.2,-2.2,30.32,SE,130,3.2,7.6,62,0.00,,,0.00,WUHU21623XXSP,2013-01-24 23:14:00,
2013-01-24 17:19:00,8.4,-2.1,30.31,South,180,5.4,6.9,62,0.00,,,0.00,WUHU21623XXSP,2013-01-24 23:19:00,
2013-01-24 17:24:00,8.4,-2.1,30.31,SE,135,4.7,6.9,62,0.00,,,0.00,WUHU21623XXSP,2013-01-24 23:24:00,
2013-01-24 17:29:00,8.4,-2.1,30.30,SE,146,4.0,7.6,62,0.00,,,0.00,WUHU21623XXSP,2013-01-24 23:29:00,
2013-01-24 17:34:00,8.4,-2.1,30.30,SE,136,5.4,7.6,62,0.00,,,0.00,WUHU21623XXSP,2013-01-24 23:34:00,
2013-01-24 17:39:00,8.6,-1.9,30.29,SE,135,6.7,7.6,62,0.00,,,0.00,WUHU21623XXSP,2013-01-24 23:39:00,
2013-01-24 17:44:00,8.6,-1.9,30.29,SSE,157,6.0,7.6,62,0.00,,,0.00,WUHU21623XXSP,2013-01-24 23:44:00,
2013-01-24 17:49:00,8.8,-1.7,30.29,SE,135,5.6,7.2,62,0.00,,,0.00,WUHU21623XXSP,2013-01-24 23:49:00,
2013-01-24 17:54:00,8.8,-1.7,30.29,SE,139,3.4,8.5,62,0.00,,,0.00,WUHU21623XXSP,2013-01-24 23:54:00,
2013-01-24 17:59:00,9.0,-1.5,30.28,SE,144,5.0,8.5,62,0.00,,,0.00,WUHU21623XXSP,2013-01-24 23:59:00,
2013-01-24 18:04:00,9.0,-1.5,30.28,SSE,156,4.4,7.6,62,0.00,,,0.00,WUHU21623XXSP,2013-01-25 00:04:00,
2013-01-24 18:09:00,9.1,-1.4,30.27,SSE,157,7.8,9.2,62,0.00,,,0.00,WUHU21623XXSP,2013-01-25 00:09:00,
2013-01-24 18:14:00,9.1,-1.4,30.27,SSE,168,4.2,9.2,62,0.00,,,0.00,WUHU21623XXSP,2013-01-25 00:14:00,
2013-01-24 18:19:00,9.1,-1.4,30.26,SE,135,6.3,7.4,62,0.00,,,0.00,WUHU21623XXSP,2013-01-25 00:19:00,
2013-01-24 18:24:00,9.1,-1.4,30.26,SSE,154,5.4,10.1,62,0.00,,,0.00,WUHU21623XXSP,2013-01-25 00:24:00,
2013-01-24 18:29:00,9.1,-1.4,30.26,SSE,159,4.3,10.1,62,0.00,,,0.00,WUHU21623XXSP,2013-01-25 00:29:00,
2013-01-24 18:34:00,9.3,-1.2,30.26,SSE,157,6.1,10.7,62,0.00,,,0.00,WUHU21623XXSP,2013-01-25 00:34:00,
2013-01-24 18:39:00,9.3,-1.2,30.26,ESE,112,4.9,10.7,62,0.00,,,0.00,WUHU21623XXSP,2013-01-25 00:39:00,
2013-01-24 18:44:00,9.3,-1.2,30.25,SSE,148,4.2,7.4,62,0.00,,,0.00,WUHU21623XXSP,2013-01-25 00:44:00,
2013-01-24 18:49:00,9.3,-1.2,30.24,SSE,160,6.7,9.6,62,0.00,,,0.00,WUHU21623XXSP,2013-01-25 00:49:00,
2013-01-24 18:54:00,9.3,-1.2,30.24,SSW,202,7.4,9.6,62,0.00,,,0.00,WUHU21623XXSP,2013-01-25 00:54:00,
2013-01-24 19:00:00,9.5,-1.0,30.23,SSE,160,5.3,9.6,62,0.00,,,0.00,WUHU21623XXSP,2013-01-25 01:00:00,
2013-01-24 19:05:00,9.5,-1.0,30.23,SE,135,3.4,8.9,62,0.00,,,0.00,WUHU21623XXSP,2013-01-25 01:05:00,
2013-01-24 19:09:00,9.5,-1.0,30.23,SE,145,6.0,11.9,62,0.00,,,0.00,WUHU21623XXSP,2013-01-25 01:09:00,
2013-01-24 19:14:00,9.7,-0.8,30.23,SE,135,4.5,11.9,62,0.00,,,0.00,WUHU21623XXSP,2013-01-25 01:14:00,
2013-01-24 19:19:00,9.7,-0.8,30.22,SSE,148,3.5,8.1,62,0.00,,,0.00,WUHU21623XXSP,2013-01-25 01:19:00,
2013-01-24 19:25:00,9.7,-0.8,30.21,SSE,151,5.4,8.1,62,0.00,,,0.00,WUHU21623XXSP,2013-01-25 01:25:00,
2013-01-24 19:30:00,9.7,-0.8,30.21,SSE,157,5.4,8.1,62,0.00,,,0.00,WUHU21623XXSP,2013-01-25 01:30:00,
2013-01-24 19:35:00,9.7,-0.8,30.20,SE,141,4.9,9.2,62,0.00,,,0.00,WUHU21623XXSP,2013-01-25 01:35:00,
2013-01-24 19:40:00,9.7,-0.8,30.20,SE,136,5.9,9.2,62,0.00,,,0.00,WUHU21623XXSP,2013-01-25 01:40:00,
2013-01-24 19:45:00,10.0,-0.5,30.19,SSE,167,3.7,8.3,62,0.00,,,0.00,WUHU21623XXSP,2013-01-25 01:45:00,
2013-01-24 19:50:00,10.0,-0.5,30.19,SSE,157,3.8,7.8,62,0.00,,,0.00,WUHU21623XXSP,2013-01-25 01:50:00,
2013-01-24 19:55:00,10.0,-0.5,30.19,SSE,148,4.8,7.8,62,0.00,,,0.00,WUHU21623XXSP,2013-01-25 01:55:00,
2013-01-24 20:00:00,10.0,-0.5,30.20,SSE,157,4.5,8.7,62,0.00,,,0.00,WUHU21623XXSP,2013-01-25 02:00:00,
2013-01-24 20:05:00,10.2,-0.3,30.19,ESE,112,5.4,8.7,62,0.00,,,0.00,WUHU21623XXSP,2013-01-25 02:05:00,
2013-01-24 20:10:00,10.2,-0.3,30.19,SSE,157,6.5,8.5,62,0.00,,,0.00,WUHU21623XXSP,2013-01-25 02:10:00,
2013-01-24 20:15:00,10.2,-0.3,30.19,SSE,157,6.0,8.9,62,0.00,,,0.00,WUHU21623XXSP,2013-01-25 02:15:00,
2013-01-24 20:20:00,10.2,-0.3,30.19,South,180,10.1,10.1,62,0.00,,,0.00,WUHU21623XXSP,2013-01-25 02:20:00,
2013-01-24 20:25:00,10.2,-0.3,30.20,SSE,157,3.8,10.1,62,0.00,,,0.00,WUHU21623XXSP,2013-01-25 02:25:00,
2013-01-24 20:30:00,10.4,-0.1,30.19,SE,137,3.9,8.9,62,0.00,,,0.00,WUHU21623XXSP,2013-01-25 02:30:00,
2013-01-24 20:35:00,10.6,0.1,30.19,SE,141,3.6,7.6,62,0.00,,,0.00,WUHU21623XXSP,2013-01-25 02:35:00,
2013-01-24 20:40:00,10.6,0.1,30.17,SSE,157,5.8,7.6,62,0.00,,,0.00,WUHU21623XXSP,2013-01-25 02:40:00,
2013-01-24 20:45:00,10.6,0.1,30.17,SE,135,4.7,7.6,62,0.00,,,0.00,WUHU21623XXSP,2013-01-25 02:45:00,
2013-01-24 20:50:00,10.6,0.1,30.17,SSE,150,4.3,9.4,62,0.00,,,0.00,WUHU21623XXSP,2013-01-25 02:50:00,
2013-01-24 20:55:00,10.6,0.1,30.16,SE,146,7.1,10.5,62,0.00,,,0.00,WUHU21623XXSP,2013-01-25 02:55:00,
2013-01-24 21:00:00,10.6,0.1,30.15,SSE,157,5.4,10.5,62,0.00,,,0.00,WUHU21623XXSP,2013-01-25 03:00:00,
2013-01-24 21:05:00,10.6,0.1,30.16,SE,135,9.2,9.8,62,0.00,,,0.00,WUHU21623XXSP,2013-01-25 03:05:00,
2013-01-24 21:10:00,10.8,0.2,30.15,SSE,151,5.8,10.7,62,0.00,,,0.00,WUHU21623XXSP,2013-01-25 03:10:00,
2013-01-24 21:15:00,10.8,0.2,30.16,SE,135,8.3,10.7,62,0.00,,,0.00,WUHU21623XXSP,2013-01-25 03:15:00,
2013-01-24 21:20:00,10.8,0.2,30.16,South,170,4.0,13.6,62,0.00,,,0.00,WUHU21623XXSP,2013-01-25 03:20:00,
2013-01-24 21:25:00,10.8,0.2,30.16,SE,135,6.9,13.6,62,0.00,,,0.00,WUHU21623XXSP,2013-01-25 03:25:00,
2013-01-24 21:30:00,10.9,0.4,30.15,SSE,157,5.6,8.9,62,0.00,,,0.00,WUHU21623XXSP,2013-01-25 03:30:00,
2013-01-24 21:35:00,10.9,0.7,30.16,SSE,157,5.1,8.1,63,0.00,,,0.00,WUHU21623XXSP,2013-01-25 03:35:00,
2013-01-24 21:40:00,10.9,0.7,30.17,SSE,148,2.7,8.9,63,0.00,,,0.00,WUHU21623XXSP,2013-01-25 03:40:00,
2013-01-24 21:45:00,11.1,0.9,30.17,SSE,157,3.4,8.9,63,0.00,,,0.00,WUHU21623XXSP,2013-01-25 03:45:00,
2013-01-24 21:50:00,11.1,0.9,30.18,SE,141,2.3,4.7,63,0.00,,,0.00,WUHU21623XXSP,2013-01-25 03:50:00,
2013-01-24 21:55:00,11.1,0.9,30.18,SE,135,3.8,4.3,63,0.00,,,0.00,WUHU21623XXSP,2013-01-25 03:55:00,
2013-01-24 22:00:00,11.1,0.9,30.18,SE,135,2.9,4.5,63,0.00,,,0.00,WUHU21623XXSP,2013-01-25 04:00:00,
2013-01-24 22:05:00,11.3,1.0,30.18,SSE,157,3.8,8.5,63,0.00,,,0.00,WUHU21623XXSP,2013-01-25 04:05:00,
2013-01-24 22:10:00,11.3,1.0,30.18,SSE,157,3.6,8.5,63,0.00,,,0.00,WUHU21623XXSP,2013-01-25 04:10:00,
2013-01-24 22:15:00,11.5,1.2,30.18,SSE,157,4.9,6.0,63,0.00,,,0.00,WUHU21623XXSP,2013-01-25 04:15:00,
2013-01-24 22:20:00,11.5,1.2,30.18,SSE,153,3.3,7.2,63,0.00,,,0.00,WUHU21623XXSP,2013-01-25 04:20:00,
2013-01-24 22:25:00,11.5,1.2,30.18,South,170,1.6,7.2,63,0.00,,,0.00,WUHU21623XXSP,2013-01-25 04:25:00,
2013-01-24 22:30:00,11.7,1.4,30.17,South,180,2.9,4.7,63,0.00,,,0.00,WUHU21623XXSP,2013-01-25 04:30:00,
2013-01-24 22:35:00,11.8,1.5,30.17,South,178,2.7,6.3,63,0.00,,,0.00,WUHU21623XXSP,2013-01-25 04:35:00,
2013-01-24 22:40:00,11.8,1.5,30.16,SSE,156,2.2,6.3,63,0.00,,,0.00,WUHU21623XXSP,2013-01-25 04:40:00,
2013-01-24 22:45:00,11.8,1.5,30.16,SE,135,3.1,4.7,63,0.00,,,0.00,WUHU21623XXSP,2013-01-25 04:45:00,
2013-01-24 22:50:00,12.0,1.7,30.16,SSE,160,3.8,6.0,63,0.00,,,0.00,WUHU21623XXSP,2013-01-25 04:50:00,
2013-01-24 22:55:00,12.0,1.7,30.16,SSE,157,4.3,6.0,63,0.00,,,0.00,WUHU21623XXSP,2013-01-25 04:55:00,
2013-01-24 23:00:00,12.0,2.0,30.16,SSE,157,5.1,6.0,64,0.00,,,0.00,WUHU21623XXSP,2013-01-25 05:00:00,
2013-01-24 23:01:00,12.0,1.7,30.16,SSE,163,3.4,6.0,63,0.00,,,0.00,WUHU21623XXSP,2013-01-25 05:01:00,
2013-01-24 23:03:00,12.0,1.7,30.15,SSE,157,2.5,6.0,63,0.00,,,0.00,WUHU21623XXSP,2013-01-25 05:03:00,
2013-01-24 23:08:00,12.0,1.7,30.14,SSE,151,2.4,5.1,63,0.00,,,0.00,WUHU21623XXSP,2013-01-25 05:08:00,
2013-01-24 23:13:00,12.2,1.9,30.14,SSE,155,3.1,6.5,63,0.00,,,0.00,WUHU21623XXSP,2013-01-25 05:13:00,
2013-01-24 23:18:00,12.4,2.1,30.15,SSE,160,2.6,6.5,63,0.00,,,0.00,WUHU21623XXSP,2013-01-25 05:18:00,
2013-01-24 23:23:00,12.4,2.1,30.15,SSE,157,2.2,4.3,63,0.00,,,0.00,WUHU21623XXSP,2013-01-25 05:23:00,
2013-01-24 23:28:00,12.4,2.4,30.14,South,180,3.1,4.9,64,0.00,,,0.00,WUHU21623XXSP,2013-01-25 05:28:00,
2013-01-24 23:33:00,12.6,2.6,30.14,SSE,149,3.1,5.4,64,0.00,,,0.00,WUHU21623XXSP,2013-01-25 05:33:00,
2013-01-24 23:38:00,12.6,2.6,30.13,SSE,163,3.3,5.4,64,0.00,,,0.00,WUHU21623XXSP,2013-01-25 05:38:00,
2013-01-24 23:43:00,12.7,2.8,30.13,South,170,3.3,5.4,64,0.00,,,0.00,WUHU21623XXSP,2013-01-25 05:43:00,
2013-01-24 23:48:00,12.7,2.8,30.13,SE,135,3.1,4.7,64,0.00,,,0.00,WUHU21623XXSP,2013-01-25 05:48:00,
2013-01-24 23:53:00,12.9,2.9,30.12,South,180,4.9,5.1,64,0.00,,,0.00,WUHU21623XXSP,2013-01-25 05:53:00,
2013-01-24 23:58:00,13.1,3.1,30.12,South,180,5.4,6.9,64,0.00,,,0.00,WUHU21623XXSP,2013-01-25 05:58:00,